Time;durP1;ratioP1;P1;durP2;ratioP2;P2;SDS_P1;SDS_P2;PMS_P1;PMS_P2;Temp;Humidity;BMP_temperature;BMP_pressure;BME280_temperature;BME280_humidity;BME280_pressure;Samples;Min_cycle;Max_cycle;Signal;HPM_P1;HPM_P2
2024/01/03 00:01:18;;;;;;;;;;;;;;;5.87;100.00;94953.00;5055741;28;1991;-63
2024/01/03 00:03:44;;;;;;;;;;;;;;;5.85;100.00;94961.09;5055673;28;1046;-63
2024/01/03 00:06:10;;;;;;;;;;;;;;;5.97;100.00;94948.56;5055611;28;1056;-63
2024/01/03 00:08:38;;;;;;;;;;;;;;;6.00;100.00;94953.63;5055943;28;976;-63
2024/01/03 00:11:04;;;;;;;;;;;;;;;6.13;100.00;94957.81;5055464;28;1033;-62
2024/01/03 00:13:32;;;;;;;;;;;;;;;6.06;100.00;94961.03;5055514;28;1053;-63
2024/01/03 00:15:58;;;;;;;;;;;;;;;6.02;100.00;94950.84;5055647;28;973;-63
2024/01/03 00:18:32;;;;;;;;;;;;;;;6.09;100.00;94951.09;5037663;28;1051;-63
2024/01/03 00:20:59;;;;;;;;;;;;;;;6.05;100.00;94955.84;5054999;28;1914;-63
2024/01/03 00:23:38;;;;;;;;;;;;;;;5.95;100.00;94953.19;5055091;28;1004;-62
2024/01/03 00:26:09;;;;;;;;;;;;;;;6.01;100.00;94951.78;5055438;28;997;-63
2024/01/03 00:28:35;;;;;;;;;;;;;;;6.03;100.00;94953.34;5055017;28;1212;-63
2024/01/03 00:31:01;;;;;;;;;;;;;;;5.98;100.00;94946.78;5055050;28;1004;-63
2024/01/03 00:33:27;;;;;;;;;;;;;;;5.93;100.00;94946.31;5055002;28;1125;-63
2024/01/03 00:35:53;;;;;;;;;;;;;;;5.90;100.00;94942.13;5054933;28;1053;-63
2024/01/03 00:38:19;;;;;;;;;;;;;;;5.89;100.00;94942.25;5055154;28;958;-63
2024/01/03 00:40:55;;;;;;;;;;;;;;;5.91;100.00;94938.50;5055138;28;2001;-63
2024/01/03 00:43:21;;;;;;;;;;;;;;;5.85;100.00;94936.38;5037277;28;1029;-63
2024/01/03 00:45:48;;;;;;;;;;;;;;;5.94;100.00;94951.50;5037109;28;1025;-63
2024/01/03 00:48:15;;;;;;;;;;;;;;;5.97;100.00;94937.13;5055222;28;1033;-63
2024/01/03 00:50:41;;;;;;;;;;;;;;;5.86;100.00;94935.41;5054980;28;1049;-63
2024/01/03 00:53:07;;;;;;;;;;;;;;;5.84;100.00;94938.22;5054698;28;1072;-63
2024/01/03 00:55:33;;;;;;;;;;;;;;;5.87;100.00;94937.09;5054809;28;1000;-63
2024/01/03 00:58:00;;;;;;;;;;;;;;;5.93;100.00;94943.66;5054243;28;1036;-63
2024/01/03 01:00:26;;;;;;;;;;;;;;;6.00;100.00;94945.66;5054660;28;1918;-63
2024/01/03 01:03:12;;;;;;;;;;;;;;;6.03;100.00;94942.75;5054618;28;1503;-63
2024/01/03 01:05:45;;;;;;;;;;;;;;;5.98;100.00;94938.81;5054459;28;1134;-63
2024/01/03 01:08:11;;;;;;;;;;;;;;;5.87;100.00;94935.25;5054420;28;1027;-63
2024/01/03 01:10:37;;;;;;;;;;;;;;;5.81;100.00;94938.47;5054391;28;1558;-63
2024/01/03 01:13:03;;;;;;;;;;;;;;;6.08;100.00;94954.75;5054287;28;1110;-63
2024/01/03 01:15:29;;;;;;;;;;;;;;;6.23;100.00;94940.91;5054430;28;1119;-62
2024/01/03 01:17:55;;;;;;;;;;;;;;;6.30;100.00;94932.38;5054429;28;964;-63
2024/01/03 01:20:21;;;;;;;;;;;;;;;6.07;100.00;94935.34;5054191;28;1983;-63
2024/01/03 01:22:47;;;;;;;;;;;;;;;6.05;100.00;94924.84;5054543;28;1216;-63
2024/01/03 01:25:13;;;;;;;;;;;;;;;6.14;100.00;94935.59;5054176;28;1007;-63
2024/01/03 01:27:39;;;;;;;;;;;;;;;6.15;100.00;94924.03;5053904;28;1210;-63
2024/01/03 01:30:05;;;;;;;;;;;;;;;6.20;100.00;94919.97;5054010;28;1021;-63
2024/01/03 01:32:31;;;;;;;;;;;;;;;6.18;100.00;94923.72;5053825;28;1064;-63
2024/01/03 01:34:57;;;;;;;;;;;;;;;6.14;100.00;94915.19;5054250;28;1051;-63
2024/01/03 01:37:23;;;;;;;;;;;;;;;6.08;100.00;94915.75;5053795;28;1029;-63
2024/01/03 01:39:49;;;;;;;;;;;;;;;5.95;100.00;94918.69;5053931;28;1906;-63
2024/01/03 01:42:15;;;;;;;;;;;;;;;5.93;100.00;94915.31;5053856;28;984;-63
2024/01/03 01:44:41;;;;;;;;;;;;;;;5.92;100.00;94912.78;5053607;28;1083;-63
2024/01/03 01:47:11;;;;;;;;;;;;;;;5.96;100.00;94915.06;5053991;28;1033;-63
2024/01/03 01:49:39;;;;;;;;;;;;;;;6.03;100.00;94918.00;5053812;28;971;-63
2024/01/03 01:52:15;;;;;;;;;;;;;;;5.94;100.00;94921.44;5053573;28;1025;-63
2024/01/03 01:54:41;;;;;;;;;;;;;;;5.98;100.00;94926.38;5053852;28;970;-63
2024/01/03 01:57:09;;;;;;;;;;;;;;;5.92;100.00;94921.59;5053451;28;1056;-63
2024/01/03 01:59:35;;;;;;;;;;;;;;;5.99;100.00;94917.44;5053614;28;982;-63
2024/01/03 02:02:01;;;;;;;;;;;;;;;6.08;100.00;94920.25;5053356;28;1890;-61
2024/01/03 02:04:27;;;;;;;;;;;;;;;6.07;100.00;94919.41;5053611;28;1019;-63
2024/01/03 02:06:53;;;;;;;;;;;;;;;6.19;100.00;94920.09;5053593;28;1026;-63
2024/01/03 02:09:19;;;;;;;;;;;;;;;6.14;100.00;94909.88;5052566;28;1045;-63
2024/01/03 02:11:45;;;;;;;;;;;;;;;6.12;100.00;94914.50;5053215;28;1100;-62
2024/01/03 02:14:11;;;;;;;;;;;;;;;6.04;100.00;94915.19;5053349;28;1058;-63
2024/01/03 02:16:37;;;;;;;;;;;;;;;5.97;100.00;94915.91;5053227;28;1028;-63
2024/01/03 02:19:06;;;;;;;;;;;;;;;5.89;100.00;94929.81;5053522;28;1046;-63
2024/01/03 02:21:32;;;;;;;;;;;;;;;5.86;100.00;94936.25;5052750;28;1910;-63
2024/01/03 02:23:58;;;;;;;;;;;;;;;5.86;100.00;94940.72;5053483;28;990;-63
2024/01/03 02:26:24;;;;;;;;;;;;;;;5.83;100.00;94938.34;5053242;28;1049;-63
2024/01/03 02:28:50;;;;;;;;;;;;;;;5.98;100.00;94938.81;5052976;28;1238;-63
2024/01/03 02:31:16;;;;;;;;;;;;;;;6.09;100.00;94938.69;5053279;28;969;-63
2024/01/03 02:33:42;;;;;;;;;;;;;;;5.87;100.00;94937.91;5053280;28;979;-63
2024/01/03 02:36:08;;;;;;;;;;;;;;;5.72;100.00;94941.94;5053040;28;1025;-63
2024/01/03 02:38:34;;;;;;;;;;;;;;;5.77;100.00;94942.38;5052948;28;1028;-63
2024/01/03 02:41:00;;;;;;;;;;;;;;;5.83;100.00;94941.00;5053008;28;1992;-62
2024/01/03 02:43:26;;;;;;;;;;;;;;;5.87;100.00;94934.44;5052928;28;1007;-63
2024/01/03 02:45:52;;;;;;;;;;;;;;;5.73;100.00;94917.09;5052925;28;1009;-63
2024/01/03 02:48:18;;;;;;;;;;;;;;;5.54;100.00;94925.88;5053215;28;972;-63
2024/01/03 02:50:47;;;;;;;;;;;;;;;5.46;100.00;94923.03;5053096;28;956;-63
2024/01/03 02:53:15;;;;;;;;;;;;;;;5.40;100.00;94907.69;5052939;28;1048;-63
2024/01/03 02:55:41;;;;;;;;;;;;;;;5.46;100.00;94912.44;5052904;28;1042;-62
2024/01/03 02:58:07;;;;;;;;;;;;;;;5.39;100.00;94911.31;5053052;28;1049;-63
2024/01/03 03:00:36;;;;;;;;;;;;;;;5.49;100.00;94909.50;5052963;28;1906;-63
2024/01/03 03:03:02;;;;;;;;;;;;;;;5.59;100.00;94910.38;5053099;28;1066;-63
2024/01/03 03:05:28;;;;;;;;;;;;;;;5.57;100.00;94908.84;5052779;28;1029;-63
2024/01/03 03:07:54;;;;;;;;;;;;;;;5.58;100.00;94906.06;5052742;28;1032;-63
2024/01/03 03:10:20;;;;;;;;;;;;;;;5.32;100.00;94902.22;5052914;28;926;-63
2024/01/03 03:12:46;;;;;;;;;;;;;;;5.37;100.00;94903.50;5052946;28;1074;-63
2024/01/03 03:15:12;;;;;;;;;;;;;;;5.45;100.00;94901.00;5052876;28;965;-63
2024/01/03 03:17:38;;;;;;;;;;;;;;;5.42;100.00;94897.78;5052783;28;1046;-63
2024/01/03 03:20:04;;;;;;;;;;;;;;;5.31;100.00;94895.22;5053524;28;1910;-63
2024/01/03 03:22:30;;;;;;;;;;;;;;;5.35;100.00;94894.84;5056274;28;1205;-63
2024/01/03 03:24:56;;;;;;;;;;;;;;;5.51;100.00;94890.81;5056717;28;925;-63
2024/01/03 03:27:22;;;;;;;;;;;;;;;5.44;100.00;94888.72;5056176;28;1210;-63
2024/01/03 03:29:49;;;;;;;;;;;;;;;5.45;100.00;94892.19;5056297;28;1115;-63
2024/01/03 03:32:16;;;;;;;;;;;;;;;5.38;100.00;94883.09;5038714;28;976;-63
2024/01/03 03:34:42;;;;;;;;;;;;;;;5.37;100.00;94890.22;5056354;28;955;-63
2024/01/03 03:37:08;;;;;;;;;;;;;;;5.36;100.00;94885.06;5056294;28;1057;-63
2024/01/03 03:39:34;;;;;;;;;;;;;;;5.19;100.00;94868.00;5056037;28;1036;-63
2024/01/03 03:42:01;;;;;;;;;;;;;;;5.08;100.00;94864.50;5056020;28;1919;-63
2024/01/03 03:44:27;;;;;;;;;;;;;;;5.11;100.00;94866.03;5056161;28;966;-63
2024/01/03 03:46:53;;;;;;;;;;;;;;;4.99;100.00;94862.63;5055974;28;1280;-63
2024/01/03 03:49:19;;;;;;;;;;;;;;;5.03;100.00;94871.16;5056207;28;1033;-63
2024/01/03 03:51:45;;;;;;;;;;;;;;;5.05;100.00;94877.16;5055858;28;1056;-60
2024/01/03 03:54:11;;;;;;;;;;;;;;;5.16;100.00;94862.94;5055868;28;996;-61
2024/01/03 03:56:37;;;;;;;;;;;;;;;5.26;100.00;94867.31;5055745;28;1092;-61
2024/01/03 03:59:03;;;;;;;;;;;;;;;5.47;100.00;94872.53;5056038;28;1068;-60
2024/01/03 04:01:29;;;;;;;;;;;;;;;5.56;100.00;94876.19;5055744;28;1914;-60
2024/01/03 04:03:55;;;;;;;;;;;;;;;5.34;100.00;94860.50;5055972;28;1047;-60
2024/01/03 04:06:21;;;;;;;;;;;;;;;5.36;100.00;94858.53;5055858;28;1067;-60
2024/01/03 04:08:48;;;;;;;;;;;;;;;5.38;100.00;94852.13;5055574;28;1080;-61
2024/01/03 04:11:14;;;;;;;;;;;;;;;5.34;100.00;94847.25;5055724;28;1143;-61
2024/01/03 04:13:40;;;;;;;;;;;;;;;5.34;100.00;94840.13;5055726;28;1052;-60
2024/01/03 04:16:07;;;;;;;;;;;;;;;5.22;100.00;94844.72;5055450;28;1092;-60
2024/01/03 04:18:34;;;;;;;;;;;;;;;5.10;100.00;94851.06;5055474;28;981;-60
2024/01/03 04:21:01;;;;;;;;;;;;;;;5.18;100.00;94861.00;5055305;28;1992;-60
2024/01/03 04:23:27;;;;;;;;;;;;;;;5.20;100.00;94857.25;5055505;28;1144;-60
2024/01/03 04:25:53;;;;;;;;;;;;;;;5.20;100.00;94864.38;5055263;28;1068;-61
2024/01/03 04:28:19;;;;;;;;;;;;;;;5.25;100.00;94876.25;5055084;28;1222;-62
2024/01/03 04:30:45;;;;;;;;;;;;;;;5.15;100.00;94872.72;5055163;28;1040;-60
2024/01/03 04:33:11;;;;;;;;;;;;;;;5.32;100.00;94879.19;5054844;28;1039;-62
2024/01/03 04:35:37;;;;;;;;;;;;;;;5.41;100.00;94888.97;5055366;28;996;-61
2024/01/03 04:38:03;;;;;;;;;;;;;;;5.38;100.00;94899.03;5055103;28;1029;-63
2024/01/03 04:40:29;;;;;;;;;;;;;;;5.46;100.00;94912.44;5054777;28;1906;-61
2024/01/03 04:42:55;;;;;;;;;;;;;;;5.39;100.00;94906.84;5055012;28;1021;-61
2024/01/03 04:45:21;;;;;;;;;;;;;;;5.44;100.00;94917.03;5036984;28;1083;-62
2024/01/03 04:47:47;;;;;;;;;;;;;;;5.38;100.00;94913.09;5054863;28;1036;-63
2024/01/03 04:50:13;;;;;;;;;;;;;;;5.40;100.00;94928.88;5054617;28;1119;-61
2024/01/03 04:52:39;;;;;;;;;;;;;;;5.51;100.00;94931.44;5055124;28;956;-61
2024/01/03 04:55:06;;;;;;;;;;;;;;;5.57;100.00;94943.31;5054690;28;1028;-62
2024/01/03 04:57:34;;;;;;;;;;;;;;;5.65;100.00;94957.59;5037178;28;1003;-62
2024/01/03 05:00:00;;;;;;;;;;;;;;;5.54;100.00;94956.81;5054709;28;2015;-61
2024/01/03 05:02:26;;;;;;;;;;;;;;;5.62;100.00;94957.84;5054937;28;1026;-61
2024/01/03 05:04:52;;;;;;;;;;;;;;;5.57;100.00;94940.66;5054532;28;1099;-61
2024/01/03 05:07:18;;;;;;;;;;;;;;;5.50;100.00;94947.47;5054529;28;1208;-62
2024/01/03 05:09:44;;;;;;;;;;;;;;;5.51;100.00;94947.34;5054904;28;980;-63
2024/01/03 05:12:10;;;;;;;;;;;;;;;5.34;100.00;94924.97;5054558;28;970;-62
2024/01/03 05:14:36;;;;;;;;;;;;;;;5.53;100.00;94942.75;5054293;28;1091;-62
2024/01/03 05:17:02;;;;;;;;;;;;;;;5.24;100.00;94922.28;5036777;28;1008;-63
2024/01/03 05:19:28;;;;;;;;;;;;;;;5.35;100.00;94918.69;5054287;28;976;-62
2024/01/03 05:21:54;;;;;;;;;;;;;;;5.41;100.00;94906.72;5053990;28;1995;-61
2024/01/03 05:24:20;;;;;;;;;;;;;;;5.30;100.00;94906.81;5054024;28;1064;-61
2024/01/03 05:26:46;;;;;;;;;;;;;;;5.11;100.00;94903.13;5054115;28;1024;-61
2024/01/03 05:29:12;;;;;;;;;;;;;;;5.03;100.00;94890.53;5053999;28;1155;-61
2024/01/03 05:31:38;;;;;;;;;;;;;;;4.93;100.00;94894.13;5054004;28;1032;-62
2024/01/03 05:34:05;;;;;;;;;;;;;;;4.81;100.00;94896.84;5054086;28;937;-61
2024/01/03 05:36:31;;;;;;;;;;;;;;;4.87;100.00;94898.13;5054060;28;1037;-61
2024/01/03 05:38:57;;;;;;;;;;;;;;;4.82;100.00;94893.25;5054106;28;1071;-62
2024/01/03 05:41:23;;;;;;;;;;;;;;;4.80;100.00;94889.88;5054184;28;1914;-61
2024/01/03 05:43:49;;;;;;;;;;;;;;;4.94;100.00;94896.63;5053139;28;1088;-61
2024/01/03 05:46:15;;;;;;;;;;;;;;;5.08;100.00;94896.28;5053934;28;1068;-62
2024/01/03 05:48:42;;;;;;;;;;;;;;;5.06;100.00;94895.56;5053854;28;1056;-62
2024/01/03 05:51:10;;;;;;;;;;;;;;;4.87;100.00;94879.59;5053651;28;1037;-61
2024/01/03 05:53:36;;;;;;;;;;;;;;;4.99;100.00;94881.19;5053819;28;1074;-62
2024/01/03 05:56:03;;;;;;;;;;;;;;;5.21;100.00;94885.44;5053594;28;1175;-62
2024/01/03 05:58:29;;;;;;;;;;;;;;;5.22;100.00;94883.63;5053640;28;987;-62
2024/01/03 06:00:55;;;;;;;;;;;;;;;5.20;100.00;94881.13;5053454;28;1902;-62
2024/01/03 06:03:21;;;;;;;;;;;;;;;5.27;100.00;94881.41;5053351;28;1012;-61
2024/01/03 06:05:47;;;;;;;;;;;;;;;5.39;100.00;94876.84;5035395;28;1041;-62
2024/01/03 06:08:13;;;;;;;;;;;;;;;5.27;100.00;94887.56;5052106;28;1068;-62
2024/01/03 06:10:39;;;;;;;;;;;;;;;5.36;100.00;94893.84;5053222;28;1008;-62
2024/01/03 06:13:05;;;;;;;;;;;;;;;5.21;100.00;94892.53;5053497;28;1015;-62
2024/01/03 06:15:31;;;;;;;;;;;;;;;5.21;100.00;94880.13;5053302;28;1043;-62
2024/01/03 06:17:57;;;;;;;;;;;;;;;5.31;100.00;94885.44;5052070;28;991;-62
2024/01/03 06:20:23;;;;;;;;;;;;;;;5.19;100.00;94889.19;5053313;28;1983;-62
2024/01/03 06:22:49;;;;;;;;;;;;;;;5.32;100.00;94894.25;5033159;28;1096;-62
2024/01/03 06:25:15;;;;;;;;;;;;;;;5.18;100.00;94898.97;5033480;28;1032;-62
2024/01/03 06:27:41;;;;;;;;;;;;;;;5.19;100.00;94900.63;5033352;28;1263;-62
2024/01/03 06:30:08;;;;;;;;;;;;;;;5.19;100.00;94895.31;5033370;28;1024;-62
2024/01/03 06:32:34;;;;;;;;;;;;;;;5.17;100.00;94891.16;5033371;28;1041;-62
2024/01/03 06:35:00;;;;;;;;;;;;;;;5.20;100.00;94880.28;5033257;28;962;-62
2024/01/03 06:37:26;;;;;;;;;;;;;;;5.20;100.00;94886.41;5033102;28;941;-62
2024/01/03 06:39:51;;;;;;;;;;;;;;;5.23;100.00;94882.66;5033378;28;1011;-62
2024/01/03 06:42:18;;;;;;;;;;;;;;;5.12;100.00;94878.28;5033231;28;1958;-62
2024/01/03 06:44:43;;;;;;;;;;;;;;;5.17;100.00;94862.81;5033088;28;1083;-62
2024/01/03 06:47:09;;;;;;;;;;;;;;;5.19;100.00;94870.66;5033160;28;1008;-62
2024/01/03 06:49:35;;;;;;;;;;;;;;;5.03;100.00;94871.16;5032970;28;1020;-62
2024/01/03 06:52:01;;;;;;;;;;;;;;;4.95;100.00;94879.78;5032937;28;1045;-62
2024/01/03 06:54:27;;;;;;;;;;;;;;;5.00;100.00;94882.00;5032950;28;1024;-62
2024/01/03 06:56:54;;;;;;;;;;;;;;;5.03;100.00;94871.16;5037296;28;1065;-62
2024/01/03 06:59:20;;;;;;;;;;;;;;;5.17;100.00;94870.78;5037152;28;1038;-62
2024/01/03 07:01:46;;;;;;;;;;;;;;;5.18;100.00;94869.81;5035673;28;1906;-62
2024/01/03 07:04:12;;;;;;;;;;;;;;;5.16;100.00;94865.59;5036836;28;984;-62
2024/01/03 07:06:38;;;;;;;;;;;;;;;5.23;100.00;94880.81;5036851;28;1052;-62
2024/01/03 07:09:05;;;;;;;;;;;;;;;5.31;100.00;94877.50;5037108;28;1020;-62
2024/01/03 07:11:31;;;;;;;;;;;;;;;5.34;100.00;94887.84;5036969;28;1029;-62
2024/01/03 07:13:59;;;;;;;;;;;;;;;5.31;100.00;94877.50;5036667;28;1036;-62
2024/01/03 07:16:26;;;;;;;;;;;;;;;5.35;100.00;94889.53;5036865;28;1072;-62
2024/01/03 07:18:52;;;;;;;;;;;;;;;5.50;100.00;94882.00;5036717;28;998;-62
2024/01/03 07:21:19;;;;;;;;;;;;;;;5.56;100.00;94880.63;5043595;28;1915;-62
2024/01/03 07:23:45;;;;;;;;;;;;;;;5.63;100.00;94882.63;5056747;28;997;-62
2024/01/03 07:26:11;;;;;;;;;;;;;;;5.49;100.00;94880.34;5056485;28;1041;-62
2024/01/03 07:28:37;;;;;;;;;;;;;;;5.43;100.00;94868.47;5044653;28;1158;-63
2024/01/03 07:31:03;;;;;;;;;;;;;;;5.54;100.00;94877.28;5036651;28;975;-62
2024/01/03 07:33:29;;;;;;;;;;;;;;;5.49;100.00;94885.66;5035201;28;994;-62
2024/01/03 07:35:55;;;;;;;;;;;;;;;5.54;100.00;94885.22;5036358;28;1065;-62
2024/01/03 07:38:21;;;;;;;;;;;;;;;5.48;100.00;94892.78;5036442;28;971;-63
2024/01/03 07:40:47;;;;;;;;;;;;;;;5.61;100.00;94895.16;5036176;28;1902;-61
2024/01/03 07:43:13;;;;;;;;;;;;;;;5.54;100.00;94893.19;5036362;28;1017;-61
2024/01/03 07:45:39;;;;;;;;;;;;;;;5.59;100.00;94907.72;5036241;28;988;-62
2024/01/03 07:48:05;;;;;;;;;;;;;;;5.64;100.00;94902.00;5036093;28;1115;-62
2024/01/03 07:50:31;;;;;;;;;;;;;;;5.56;100.00;94894.75;5035916;28;1023;-61
2024/01/03 07:52:57;;;;;;;;;;;;;;;5.50;100.00;94889.13;5034911;28;1032;-62
2024/01/03 07:55:24;;;;;;;;;;;;;;;5.50;100.00;94899.75;5038997;28;1677;-62
2024/01/03 07:57:50;;;;;;;;;;;;;;;5.60;100.00;94898.78;5046109;28;1248;-62
2024/01/03 08:00:16;;;;;;;;;;;;;;;5.58;100.00;94890.13;5045921;28;1997;-62
2024/01/03 08:02:42;;;;;;;;;;;;;;;5.35;100.00;94893.97;5044487;28;1146;-62
2024/01/03 08:05:09;;;;;;;;;;;;;;;5.23;100.00;94887.94;5046149;28;1268;-62
2024/01/03 08:07:35;;;;;;;;;;;;;;;5.22;100.00;94876.50;5045510;28;1276;-62
2024/01/03 08:10:01;;;;;;;;;;;;;;;5.31;100.00;94871.38;5046458;28;1261;-62
2024/01/03 08:12:27;;;;;;;;;;;;;;;5.46;100.00;94865.56;5044666;28;1264;-62
2024/01/03 08:14:53;;;;;;;;;;;;;;;5.55;100.00;94858.56;5045029;28;1288;-62
2024/01/03 08:17:19;;;;;;;;;;;;;;;5.48;100.00;94849.47;5039628;28;1332;-62
2024/01/03 08:19:45;;;;;;;;;;;;;;;5.67;100.00;94860.13;5048761;28;1245;-62
2024/01/03 08:22:11;;;;;;;;;;;;;;;5.77;100.00;94865.44;5060537;28;2088;-62
2024/01/03 08:24:37;;;;;;;;;;;;;;;5.90;100.00;94874.94;5064988;28;1237;-62
2024/01/03 08:27:04;;;;;;;;;;;;;;;6.03;100.00;94884.34;5064469;28;1275;-62
2024/01/03 08:29:30;;;;;;;;;;;;;;;5.94;100.00;94893.13;5046640;28;1250;-62
2024/01/03 08:31:56;;;;;;;;;;;;;;;5.67;100.00;94881.34;5065238;28;1292;-62
2024/01/03 08:34:22;;;;;;;;;;;;;;;5.65;100.00;94890.41;5065633;28;1287;-62
2024/01/03 08:36:48;;;;;;;;;;;;;;;5.75;100.00;94907.19;5065643;28;1214;-62
2024/01/03 08:39:14;;;;;;;;;;;;;;;5.68;100.00;94901.59;5064062;28;1210;-62
2024/01/03 08:41:40;;;;;;;;;;;;;;;5.74;100.00;94904.69;5064341;28;1911;-62
2024/01/03 08:44:06;;;;;;;;;;;;;;;5.67;100.00;94896.41;5065758;28;1268;-62
2024/01/03 08:46:38;;;;;;;;;;;;;;;5.65;100.00;94895.72;5060761;28;1162;-62
2024/01/03 08:49:04;;;;;;;;;;;;;;;5.76;100.00;94886.81;5064137;28;1067;-62
2024/01/03 08:51:30;;;;;;;;;;;;;;;5.73;100.00;94884.41;5065360;28;1298;-62
2024/01/03 08:53:56;;;;;;;;;;;;;;;5.83;100.00;94894.06;5064124;28;1233;-62
2024/01/03 08:56:23;;;;;;;;;;;;;;;5.87;100.00;94892.81;5064179;28;1229;-62
2024/01/03 08:58:49;;;;;;;;;;;;;;;5.99;100.00;94892.72;5065497;28;1249;-62
2024/01/03 09:01:16;;;;;;;;;;;;;;;6.03;100.00;94887.00;5063442;28;1988;-62
2024/01/03 09:03:42;;;;;;;;;;;;;;;6.01;100.00;94891.63;5071896;28;1209;-62
2024/01/03 09:06:08;;;;;;;;;;;;;;;6.19;100.00;94889.09;5074748;28;1023;-63
2024/01/03 09:08:35;;;;;;;;;;;;;;;6.38;100.00;94874.94;5074721;28;1001;-63
2024/01/03 09:11:07;;;;;;;;;;;;;;;6.43;100.00;94875.38;5073189;28;1449;-61
2024/01/03 09:13:37;;;;;;;;;;;;;;;6.48;100.00;94872.28;5064762;28;1269;-61
2024/01/03 09:16:07;;;;;;;;;;;;;;;6.43;100.00;94867.41;5061333;28;1285;-61
2024/01/03 09:18:33;;;;;;;;;;;;;;;6.42;100.00;94860.41;5062662;28;1225;-61
2024/01/03 09:21:01;;;;;;;;;;;;;;;6.43;100.00;94858.56;5064702;28;1898;-61
2024/01/03 09:23:29;;;;;;;;;;;;;;;6.27;100.00;94859.16;5064038;28;1241;-61
2024/01/03 09:25:55;;;;;;;;;;;;;;;6.17;100.00;94847.72;5062618;28;1312;-62
2024/01/03 09:28:22;;;;;;;;;;;;;;;6.10;100.00;94844.78;5062588;28;1182;-61
2024/01/03 09:30:48;;;;;;;;;;;;;;;6.23;100.00;94840.03;5063451;28;1229;-61
2024/01/03 09:33:14;;;;;;;;;;;;;;;6.27;100.00;94837.09;5064451;28;1368;-61
2024/01/03 09:35:40;;;;;;;;;;;;;;;6.19;100.00;94827.19;5062836;28;1226;-61
2024/01/03 09:38:06;;;;;;;;;;;;;;;6.31;100.00;94836.66;5063504;28;1244;-62
2024/01/03 09:40:33;;;;;;;;;;;;;;;6.19;100.00;94827.19;5069712;28;1985;-61
2024/01/03 09:43:01;;;;;;;;;;;;;;;6.12;100.00;94823.44;5073928;28;995;-61
2024/01/03 09:45:28;;;;;;;;;;;;;;;6.19;100.00;94814.75;5073546;28;1033;-62
2024/01/03 09:47:54;;;;;;;;;;;;;;;6.27;100.00;94813.19;5073910;28;1058;-62
2024/01/03 09:50:21;;;;;;;;;;;;;;;6.34;100.00;94815.16;5073603;28;1084;-61
2024/01/03 09:52:48;;;;;;;;;;;;;;;6.34;100.00;94815.16;5073919;28;974;-62
2024/01/03 09:55:14;;;;;;;;;;;;;;;6.50;100.00;94816.34;5073494;28;1076;-62
2024/01/03 09:57:41;;;;;;;;;;;;;;;6.54;100.00;94812.44;5073493;28;1029;-62
2024/01/03 10:00:08;;;;;;;;;;;;;;;6.41;100.00;94810.94;5073462;28;1032;-62
2024/01/03 10:02:37;;;;;;;;;;;;;;;6.33;100.00;94804.66;5073646;28;1029;-62
2024/01/03 10:05:04;;;;;;;;;;;;;;;6.32;100.00;94802.97;5073691;28;1019;-62
2024/01/03 10:07:30;;;;;;;;;;;;;;;6.43;100.00;94808.97;5073618;28;976;-61
2024/01/03 10:09:56;;;;;;;;;;;;;;;6.56;100.00;94808.63;5073463;28;1001;-62
2024/01/03 10:12:22;;;;;;;;;;;;;;;6.51;100.00;94807.41;5073295;28;1025;-61
2024/01/03 10:14:49;;;;;;;;;;;;;;;6.53;100.00;94800.13;5073329;28;1046;-61
2024/01/03 10:17:16;;;;;;;;;;;;;;;6.60;100.00;94801.22;5055578;28;1090;-62
2024/01/03 10:19:42;;;;;;;;;;;;;;;6.52;100.00;94787.81;5073280;28;1083;-62
2024/01/03 10:22:09;;;;;;;;;;;;;;;6.71;100.00;94798.38;5073094;28;1891;-62
2024/01/03 10:24:40;;;;;;;;;;;;;;;6.78;100.00;94794.16;5073406;28;1037;-61
2024/01/03 10:27:09;;;;;;;;;;;;;;;6.81;100.00;94790.34;5061380;28;1106;-61
2024/01/03 10:29:39;;;;;;;;;;;;;;;6.62;100.00;94783.31;5062368;28;1217;-61
2024/01/03 10:32:09;;;;;;;;;;;;;;;6.77;100.00;94787.19;5062037;28;1276;-61
2024/01/03 10:34:36;;;;;;;;;;;;;;;6.91;100.00;94788.50;5060432;28;1258;-61
2024/01/03 10:37:03;;;;;;;;;;;;;;;6.80;100.00;94781.56;5062308;28;1272;-61
2024/01/03 10:39:30;;;;;;;;;;;;;;;6.77;100.00;94781.00;5063567;28;1367;-61
2024/01/03 10:41:58;;;;;;;;;;;;;;;6.95;100.00;94773.94;5062404;28;1906;-61
2024/01/03 10:44:24;;;;;;;;;;;;;;;6.96;100.00;94777.41;5061938;28;1284;-61
2024/01/03 10:46:55;;;;;;;;;;;;;;;6.94;100.00;94769.59;5063728;28;1110;-61
2024/01/03 10:49:21;;;;;;;;;;;;;;;6.97;100.00;94760.50;5063257;28;1293;-61
2024/01/03 10:51:51;;;;;;;;;;;;;;;7.16;100.00;94765.69;5043775;28;1585;-61
2024/01/03 10:54:19;;;;;;;;;;;;;;;7.30;100.00;94760.84;5062415;28;1593;-61
2024/01/03 10:56:50;;;;;;;;;;;;;;;7.16;100.00;94754.22;5063399;28;1063;-61
2024/01/03 10:59:17;;;;;;;;;;;;;;;7.21;100.00;94754.63;5062154;28;1221;-62
2024/01/03 11:01:46;;;;;;;;;;;;;;;7.10;100.00;94754.84;5061817;28;1930;-62
2024/01/03 11:04:21;;;;;;;;;;;;;;;7.13;100.00;94751.88;5059000;28;1340;-61
2024/01/03 11:06:56;;;;;;;;;;;;;;;7.06;100.00;94741.00;5061641;28;1232;-62
2024/01/03 11:09:23;;;;;;;;;;;;;;;7.06;100.00;94734.84;5061520;28;1276;-61
2024/01/03 11:11:49;;;;;;;;;;;;;;;7.22;100.00;94727.88;5045936;28;1505;-61
2024/01/03 11:14:18;;;;;;;;;;;;;;;7.34;100.00;94736.47;5061867;28;1237;-62
2024/01/03 11:16:44;;;;;;;;;;;;;;;7.19;100.00;94727.31;5061507;28;1248;-61
2024/01/03 11:19:10;;;;;;;;;;;;;;;7.14;100.00;94722.47;5058434;28;1193;-62
2024/01/03 11:21:40;;;;;;;;;;;;;;;7.17;100.00;94730.16;5062119;28;1987;-64
2024/01/03 11:24:09;;;;;;;;;;;;;;;7.23;100.00;94721.56;5063568;28;1285;-65
2024/01/03 11:26:57;;;;;;;;;;;;;;;7.08;100.00;94723.09;5062173;28;1273;-65
2024/01/03 11:29:45;;;;;;;;;;;;;;;7.03;100.00;94720.03;5060786;28;1289;-65
2024/01/03 11:32:28;;;;;;;;;;;;;;;7.23;100.00;94716.25;5062955;28;1265;-65
2024/01/03 11:34:54;;;;;;;;;;;;;;;7.22;100.00;94703.94;5059260;28;1166;-64
2024/01/03 11:37:23;;;;;;;;;;;;;;;7.31;100.00;94706.69;5061788;28;1224;-64
2024/01/03 11:39:52;;;;;;;;;;;;;;;7.43;100.00;94706.28;5063134;28;1288;-64
2024/01/03 11:42:28;;;;;;;;;;;;;;;7.38;100.00;94700.59;5065082;28;1997;-63
2024/01/03 11:45:13;;;;;;;;;;;;;;;7.41;100.00;94704.78;5045386;28;1242;-64
2024/01/03 11:47:40;;;;;;;;;;;;;;;7.52;100.00;94698.41;5064810;28;1205;-64
2024/01/03 11:50:08;;;;;;;;;;;;;;;7.56;100.00;94681.13;5064829;28;1351;-64
2024/01/03 11:52:42;;;;;;;;;;;;;;;7.67;100.00;94688.03;5065916;28;1396;-63
2024/01/03 11:55:10;;;;;;;;;;;;;;;7.81;100.00;94704.25;5066445;28;1375;-61
2024/01/03 11:57:41;;;;;;;;;;;;;;;7.94;100.00;94706.53;5065529;28;1229;-62
2024/01/03 12:00:11;;;;;;;;;;;;;;;7.89;100.00;94703.50;5064531;28;1221;-62
2024/01/03 12:02:37;;;;;;;;;;;;;;;8.05;100.00;94701.94;5065650;28;1911;-62
2024/01/03 12:05:06;;;;;;;;;;;;;;;8.24;100.00;94709.72;5066285;28;1261;-62
2024/01/03 12:07:33;;;;;;;;;;;;;;;8.18;100.00;94707.69;5062266;28;1289;-62
2024/01/03 12:10:00;;;;;;;;;;;;;;;8.15;100.00;94702.66;5064879;28;1407;-62
2024/01/03 12:12:26;;;;;;;;;;;;;;;8.06;100.00;94706.28;5066051;28;1324;-63
2024/01/03 12:14:53;;;;;;;;;;;;;;;7.92;100.00;94700.53;5064417;28;1218;-62
2024/01/03 12:17:29;;;;;;;;;;;;;;;7.98;100.00;94704.38;5064979;28;1304;-63
2024/01/03 12:20:15;;;;;;;;;;;;;;;8.07;100.00;94705.28;5062797;28;1278;-63
2024/01/03 12:22:41;;;;;;;;;;;;;;;8.20;100.00;94695.06;5063803;28;1270;-62
2024/01/03 12:25:15;;;;;;;;;;;;;;;8.28;100.00;94687.09;5064168;28;1331;-63
2024/01/03 12:27:41;;;;;;;;;;;;;;;8.35;100.00;94672.16;5065442;28;1257;-62
2024/01/03 12:30:14;;;;;;;;;;;;;;;8.39;100.00;94680.66;5064107;28;1312;-62
2024/01/03 12:32:40;;;;;;;;;;;;;;;8.48;100.00;94690.41;5064360;28;1256;-63
2024/01/03 12:35:07;;;;;;;;;;;;;;;8.29;100.00;94653.31;5066062;28;1342;-63
2024/01/03 12:37:33;;;;;;;;;;;;;;;8.53;100.00;94682.75;5064225;28;1198;-62
2024/01/03 12:39:59;;;;;;;;;;;;;;;8.52;100.00;94672.28;5064743;28;1280;-63
2024/01/03 12:42:25;;;;;;;;;;;;;;;8.71;100.00;94665.84;5065734;28;2018;-62
2024/01/03 12:44:51;;;;;;;;;;;;;;;8.72;100.00;94673.66;5061254;28;1146;-63
2024/01/03 12:47:17;;;;;;;;;;;;;;;8.69;100.00;94668.69;5064837;28;1292;-62
2024/01/03 12:49:44;;;;;;;;;;;;;;;8.62;100.00;94664.16;5065098;28;1277;-63
2024/01/03 12:52:10;;;;;;;;;;;;;;;8.70;100.00;94658.84;5063022;28;1363;-63
2024/01/03 12:54:37;;;;;;;;;;;;;;;8.84;98.94;94662.69;5064527;28;1228;-62
2024/01/03 12:57:03;;;;;;;;;;;;;;;8.71;100.00;94663.19;5065028;28;1257;-62